Time;durP1;ratioP1;P1;durP2;ratioP2;P2;SDS_P1;SDS_P2;PMS_P1;PMS_P2;Temp;Humidity;BMP_temperature;BMP_pressure;BME280_temperature;BME280_humidity;BME280_pressure;Samples;Min_cycle;Max_cycle;Signal;HPM_P1;HPM_P2
2024/01/16 00:01:18;;;;;;;22.85;13.38;;;-0.90;99.90;;;;;;5024240;28;20022;-86
2024/01/16 00:03:44;;;;;;;19.20;13.02;;;-0.90;99.90;;;;;;5036318;28;20022;-86
2024/01/16 00:06:10;;;;;;;13.07;8.38;;;-0.90;99.90;;;;;;5005678;28;20046;-85
2024/01/16 00:08:36;;;;;;;18.63;12.88;;;-0.90;99.90;;;;;;5010841;28;20018;-86
2024/01/16 00:11:03;;;;;;;20.88;13.40;;;-0.90;99.90;;;;;;5012413;28;20036;-85
2024/01/16 00:13:30;;;;;;;19.75;13.90;;;-0.80;99.90;;;;;;5015373;28;20029;-86
2024/01/16 00:15:58;;;;;;;19.52;12.15;;;-0.80;99.90;;;;;;5024283;28;20121;-86
2024/01/16 00:18:24;;;;;;;21.67;13.98;;;-0.80;99.90;;;;;;5027621;28;20048;-86
2024/01/16 00:20:50;;;;;;;20.60;12.18;;;-0.80;99.90;;;;;;4995830;28;20460;-86
2024/01/16 00:23:16;;;;;;;17.77;12.07;;;-0.80;99.90;;;;;;5014585;28;20058;-85
2024/01/16 00:25:42;;;;;;;16.52;11.25;;;-0.80;99.90;;;;;;5012893;28;20062;-88
2024/01/16 00:28:08;;;;;;;20.45;12.60;;;-0.80;99.90;;;;;;5013477;28;20060;-85
2024/01/16 00:30:33;;;;;;;17.85;11.32;;;-0.80;99.90;;;;;;5013592;28;20033;-87
2024/01/16 00:32:59;;;;;;;17.08;11.68;;;-0.80;99.90;;;;;;5015759;28;20503;-86
2024/01/16 00:35:25;;;;;;;20.92;12.60;;;-0.80;99.90;;;;;;5013274;28;20025;-86
2024/01/16 00:37:52;;;;;;;17.83;11.30;;;-0.80;99.90;;;;;;5012525;28;20026;-86
2024/01/16 00:40:18;;;;;;;20.17;12.45;;;-0.80;99.90;;;;;;5013722;28;20119;-86
2024/01/16 00:42:43;;;;;;;20.98;13.18;;;-0.80;99.90;;;;;;4999174;28;20053;-85
2024/01/16 00:45:09;;;;;;;16.92;12.85;;;-0.90;99.90;;;;;;5011345;28;20099;-85
2024/01/16 00:47:35;;;;;;;18.27;12.30;;;-0.80;99.90;;;;;;5011118;28;20380;-86
2024/01/16 00:50:02;;;;;;;19.52;10.50;;;-0.80;99.90;;;;;;4989074;28;20014;-86
2024/01/16 00:52:28;;;;;;;20.38;11.70;;;-0.80;99.90;;;;;;4998487;28;20112;-85
2024/01/16 00:54:54;;;;;;;19.77;11.73;;;-0.80;99.90;;;;;;4999432;28;20086;-84
2024/01/16 00:57:20;;;;;;;19.45;13.20;;;-0.80;99.90;;;;;;5036693;28;20029;-85
2024/01/16 00:59:46;;;;;;;18.58;10.10;;;-0.80;99.90;;;;;;5024199;28;20018;-85
2024/01/16 01:02:12;;;;;;;17.88;13.10;;;-0.70;99.90;;;;;;5018893;28;20030;-85
2024/01/16 01:04:40;;;;;;;17.98;13.20;;;-0.70;99.90;;;;;;4976187;28;20026;-86
2024/01/16 01:07:06;;;;;;;;;;;-0.70;99.90;;;;;;5017429;28;20030;-85
2024/01/16 01:09:32;;;;;;;16.40;10.20;;;-0.70;99.90;;;;;;5020214;28;19916;-85
2024/01/16 01:11:58;;;;;;;16.92;11.02;;;-0.70;99.90;;;;;;5025863;28;20037;-86
2024/01/16 01:14:26;;;;;;;16.38;10.65;;;-0.80;99.90;;;;;;5032699;28;20033;-85
2024/01/16 01:16:52;;;;;;;;;;;-0.70;99.90;;;;;;5030448;28;20029;-86
2024/01/16 01:19:18;;;;;;;16.48;11.10;;;-0.70;99.90;;;;;;5021310;28;19959;-85
2024/01/16 01:21:44;;;;;;;15.68;11.10;;;-0.80;99.90;;;;;;5017282;28;20032;-85
2024/01/16 01:24:10;;;;;;;21.02;14.05;;;-0.80;99.90;;;;;;5015848;28;20025;-85
2024/01/16 01:26:35;;;;;;;20.58;12.82;;;-0.90;99.90;;;;;;5013909;28;20096;-84
2024/01/16 01:29:02;;;;;;;18.42;12.00;;;-0.90;99.90;;;;;;5020398;28;20026;-84
2024/01/16 01:31:29;;;;;;;22.85;13.30;;;-0.90;99.90;;;;;;5017849;28;20050;-86
2024/01/16 01:33:55;;;;;;;22.45;12.18;;;-0.90;99.90;;;;;;5011500;28;20029;-84
2024/01/16 01:36:21;;;;;;;15.80;11.27;;;-0.90;99.90;;;;;;4992809;28;20136;-84
2024/01/16 01:38:46;;;;;;;21.55;13.50;;;-0.90;99.90;;;;;;5023203;28;20018;-84
2024/01/16 01:41:12;;;;;;;20.48;13.55;;;-0.90;99.90;;;;;;5005931;28;20033;-85
2024/01/16 01:43:38;;;;;;;21.13;13.63;;;-1.00;99.90;;;;;;5016424;28;20352;-87
2024/01/16 01:46:16;;;;;;;19.70;11.68;;;-0.90;99.90;;;;;;5026714;28;20038;-85
2024/01/16 01:48:42;;;;;;;;;;;-0.90;99.90;;;;;;5031164;28;20032;-86
2024/01/16 01:51:09;;;;;;;17.95;11.57;;;-0.90;99.90;;;;;;5018517;28;19968;-87
2024/01/16 01:53:35;;;;;;;19.50;11.43;;;-0.90;99.90;;;;;;5018165;28;20037;-87
2024/01/16 01:56:05;;;;;;;16.73;11.13;;;-0.90;99.90;;;;;;5014624;28;20058;-88
2024/01/16 01:58:33;;;;;;;19.77;12.63;;;-0.90;99.90;;;;;;5017506;28;20394;-86
2024/01/16 02:01:01;;;;;;;20.02;13.48;;;-0.90;99.90;;;;;;5003299;28;20127;-86
2024/01/16 02:03:29;;;;;;;17.23;11.50;;;-1.00;99.90;;;;;;5011660;28;20086;-88
2024/01/16 02:05:56;;;;;;;20.25;11.43;;;-1.00;99.90;;;;;;5010641;28;20034;-87
2024/01/16 02:08:22;;;;;;;22.17;13.82;;;-0.90;99.90;;;;;;5020271;28;20358;-86
2024/01/16 02:10:50;;;;;;;17.90;11.52;;;-0.90;99.90;;;;;;5021370;28;20030;-87
2024/01/16 02:13:20;;;;;;;16.98;12.15;;;-0.90;99.90;;;;;;5023003;28;20017;-84
2024/01/16 02:15:46;;;;;;;18.30;12.10;;;-0.90;99.90;;;;;;5009209;28;20044;-85
2024/01/16 02:18:11;;;;;;;16.27;11.02;;;-0.80;99.90;;;;;;5026899;28;20037;-85
2024/01/16 02:20:37;;;;;;;19.58;13.23;;;-0.90;99.90;;;;;;5013107;28;20029;-84
2024/01/16 02:23:06;;;;;;;16.42;11.55;;;-0.90;99.90;;;;;;5018398;28;20022;-84
2024/01/16 02:25:32;;;;;;;16.77;9.30;;;-0.90;99.90;;;;;;5025421;28;20015;-84
2024/01/16 02:27:59;;;;;;;22.67;12.45;;;-0.90;99.90;;;;;;5004390;28;20097;-84
2024/01/16 02:30:25;;;;;;;19.63;11.82;;;-0.90;99.90;;;;;;5031026;28;20022;-85
2024/01/16 02:32:51;;;;;;;16.48;11.32;;;-0.90;99.90;;;;;;5023658;28;20037;-83
2024/01/16 02:35:18;;;;;;;15.75;10.60;;;-0.90;99.90;;;;;;5023302;28;20041;-86
2024/01/16 02:37:44;;;;;;;12.50;9.15;;;-0.90;99.90;;;;;;5015859;28;20026;-83
2024/01/16 02:40:10;;;;;;;18.67;10.95;;;-0.90;99.90;;;;;;5020598;28;20336;-84
2024/01/16 02:42:39;;;;;;;20.92;11.75;;;-1.00;99.90;;;;;;5015490;28;20010;-83
2024/01/16 02:45:06;;;;;;;20.73;13.35;;;-0.90;99.90;;;;;;5023275;28;20443;-83
2024/01/16 02:47:33;;;;;;;19.75;11.43;;;-0.90;99.90;;;;;;5016264;28;20041;-85
2024/01/16 02:50:00;;;;;;;17.43;11.73;;;-0.90;99.90;;;;;;5011247;28;20101;-84
2024/01/16 02:52:26;;;;;;;14.57;8.10;;;-0.90;99.90;;;;;;5012896;28;20283;-84
2024/01/16 02:54:52;;;;;;;15.60;9.18;;;-0.90;99.90;;;;;;5014111;28;20021;-83
2024/01/16 02:57:17;;;;;;;19.92;11.65;;;-0.90;99.90;;;;;;5015578;28;20415;-84
2024/01/16 02:59:44;;;;;;;24.10;10.25;;;-1.00;99.90;;;;;;5011466;28;20022;-82
2024/01/16 03:02:11;;;;;;;19.38;13.15;;;-1.00;99.90;;;;;;5006565;28;20380;-84
2024/01/16 03:04:37;;;;;;;19.50;11.20;;;-1.00;99.90;;;;;;5009079;28;20032;-84
2024/01/16 03:07:03;;;;;;;13.98;9.73;;;-1.00;99.90;;;;;;5013917;28;20057;-83
2024/01/16 03:09:29;;;;;;;19.48;11.20;;;-1.00;99.90;;;;;;5013433;28;20022;-85
2024/01/16 03:11:55;;;;;;;16.77;11.63;;;-1.00;99.90;;;;;;5014279;28;20096;-83
2024/01/16 03:14:21;;;;;;;19.77;11.30;;;-1.00;99.90;;;;;;5014423;28;20105;-84
2024/01/16 03:16:47;;;;;;;20.50;12.10;;;-0.90;99.90;;;;;;4997981;28;20054;-85
2024/01/16 03:19:13;;;;;;;15.25;11.18;;;-1.00;99.90;;;;;;5026196;28;20076;-85
2024/01/16 03:21:39;;;;;;;17.90;11.82;;;-0.90;99.90;;;;;;5016618;28;20093;-84
2024/01/16 03:24:08;;;;;;;18.70;10.82;;;-0.90;99.90;;;;;;5013852;28;20490;-84
2024/01/16 03:26:34;;;;;;;17.35;11.32;;;-1.00;99.90;;;;;;5013912;28;20034;-84
2024/01/16 03:29:00;;;;;;;19.67;12.45;;;-0.90;99.90;;;;;;5013942;28;20025;-84
2024/01/16 03:31:26;;;;;;;19.05;12.73;;;-0.90;99.90;;;;;;5030214;28;20029;-85
2024/01/16 03:33:51;;;;;;;17.67;10.88;;;-0.90;99.90;;;;;;5025097;28;20025;-83
2024/01/16 03:36:18;;;;;;;15.30;10.65;;;-0.90;99.90;;;;;;5016155;28;20026;-84
2024/01/16 03:38:44;;;;;;;17.48;11.73;;;-0.90;99.90;;;;;;5011510;28;20428;-82
2024/01/16 03:41:12;;;;;;;19.75;12.50;;;-1.00;99.90;;;;;;5013625;28;20026;-83
2024/01/16 03:43:40;;;;;;;18.30;12.40;;;-1.00;99.90;;;;;;5013215;28;20109;-86
2024/01/16 03:46:06;;;;;;;21.55;12.88;;;-1.00;99.90;;;;;;5013231;28;20518;-84
2024/01/16 03:48:32;;;;;;;17.27;11.60;;;-1.10;99.90;;;;;;5014057;28;20066;-88
2024/01/16 03:50:58;;;;;;;18.08;10.07;;;-1.10;99.90;;;;;;5013703;28;20025;-88
2024/01/16 03:53:25;;;;;;;19.50;11.48;;;-1.10;99.90;;;;;;5013566;28;20025;-87
2024/01/16 03:55:51;;;;;;;19.88;12.80;;;-1.20;99.90;;;;;;5015126;28;20099;-89
2024/01/16 03:58:17;;;;;;;25.88;14.23;;;-1.10;99.90;;;;;;5012688;28;20029;-89
2024/01/16 04:00:43;;;;;;;23.50;13.77;;;-1.10;99.90;;;;;;5015964;28;20022;-87
2024/01/16 04:03:09;;;;;;;18.23;10.60;;;-1.10;99.90;;;;;;4998442;28;20022;-85
2024/01/16 04:05:35;;;;;;;21.92;12.68;;;-1.00;99.90;;;;;;5023784;28;20030;-86
2024/01/16 04:08:01;;;;;;;26.80;13.05;;;-1.00;99.90;;;;;;5032933;28;20017;-85
2024/01/16 04:10:27;;;;;;;20.83;12.98;;;-1.00;99.90;;;;;;5013783;28;20033;-85
2024/01/16 04:12:52;;;;;;;19.98;11.98;;;-1.10;99.90;;;;;;5022162;28;20053;-85
2024/01/16 04:15:18;;;;;;;20.95;12.70;;;-1.20;99.90;;;;;;5023870;28;20105;-84
2024/01/16 04:17:44;;;;;;;21.40;13.13;;;-1.20;99.90;;;;;;5016152;28;20486;-86
2024/01/16 04:20:11;;;;;;;24.42;12.95;;;-1.20;99.90;;;;;;5000506;28;20030;-86
2024/01/16 04:22:36;;;;;;;19.75;12.65;;;-1.20;99.90;;;;;;4998993;28;20026;-86
2024/01/16 04:25:04;;;;;;;19.13;12.43;;;-1.20;99.90;;;;;;5020906;28;20022;-84
2024/01/16 04:27:31;;;;;;;18.77;12.85;;;-1.30;99.90;;;;;;5027391;28;20034;-87
2024/01/16 04:29:57;;;;;;;18.27;10.80;;;-1.30;99.90;;;;;;5033580;28;20022;-87
2024/01/16 04:32:23;;;;;;;20.80;12.93;;;-1.30;99.90;;;;;;5030611;28;20026;-84
2024/01/16 04:34:49;;;;;;;22.25;11.90;;;-1.30;99.90;;;;;;5025404;28;20061;-86
2024/01/16 04:37:15;;;;;;;20.90;13.68;;;-1.30;99.90;;;;;;5027125;28;20021;-82
2024/01/16 04:39:41;;;;;;;18.20;10.82;;;-1.30;99.90;;;;;;5025134;28;20017;-86
2024/01/16 04:42:07;;;;;;;19.85;11.75;;;-1.30;99.90;;;;;;5019492;28;20030;-84
2024/01/16 04:44:33;;;;;;;20.35;13.35;;;-1.20;99.90;;;;;;4988918;28;20093;-84
2024/01/16 04:46:58;;;;;;;24.67;14.23;;;-1.30;99.90;;;;;;5020893;28;20076;-86
2024/01/16 04:49:24;;;;;;;23.95;13.52;;;-1.20;99.90;;;;;;5021183;28;20018;-85
2024/01/16 04:51:50;;;;;;;10.50;8.63;;;-1.20;99.90;;;;;;5037497;28;20025;-86
2024/01/16 04:54:16;;;;;;;18.98;11.93;;;-1.30;99.90;;;;;;5020338;28;20097;-86
2024/01/16 04:56:42;;;;;;;21.98;14.52;;;-1.40;99.90;;;;;;5005750;28;20069;-85
2024/01/16 04:59:07;;;;;;;20.05;13.10;;;-1.40;99.90;;;;;;5016067;28;20022;-88
2024/01/16 05:01:33;;;;;;;20.20;12.88;;;-1.40;99.90;;;;;;5020022;28;20142;-85
2024/01/16 05:03:59;;;;;;;22.27;15.35;;;-1.40;99.90;;;;;;5024575;28;20026;-82
2024/01/16 05:06:25;;;;;;;22.15;13.68;;;-1.40;99.90;;;;;;5017246;28;20482;-84
2024/01/16 05:08:51;;;;;;;17.63;10.63;;;-1.40;99.90;;;;;;5018820;28;20502;-84
2024/01/16 05:11:17;;;;;;;20.58;13.43;;;-1.40;99.90;;;;;;5017341;28;20487;-84
2024/01/16 05:13:42;;;;;;;24.05;13.85;;;-1.40;99.90;;;;;;5019975;28;20054;-86
2024/01/16 05:16:08;;;;;;;21.35;13.07;;;-1.40;99.90;;;;;;5035201;28;20002;-84
2024/01/16 05:18:34;;;;;;;18.85;13.20;;;-1.40;99.90;;;;;;5017536;28;20032;-85
2024/01/16 05:21:02;;;;;;;21.38;13.25;;;-1.40;99.90;;;;;;5016742;28;20026;-87
2024/01/16 05:23:28;;;;;;;23.67;15.70;;;-1.40;99.90;;;;;;5012582;28;20085;-87
2024/01/16 05:25:54;;;;;;;23.92;14.48;;;-1.40;99.90;;;;;;5009883;28;20450;-86
2024/01/16 05:28:20;;;;;;;23.02;12.38;;;-1.40;99.90;;;;;;5030559;28;20060;-84
2024/01/16 05:30:46;;;;;;;22.57;12.13;;;-1.40;99.90;;;;;;5004082;28;20050;-85
2024/01/16 05:33:16;;;;;;;24.98;15.52;;;-1.40;99.90;;;;;;5019750;28;20624;-88
2024/01/16 05:35:42;;;;;;;27.60;15.43;;;-1.40;99.90;;;;;;5016849;28;20056;-86
2024/01/16 05:38:08;;;;;;;21.33;12.68;;;-1.30;99.90;;;;;;5022806;28;20076;-88
2024/01/16 05:40:33;;;;;;;20.38;12.85;;;-1.30;99.90;;;;;;5029515;28;20022;-86
2024/01/16 05:42:59;;;;;;;27.85;15.00;;;-1.30;99.90;;;;;;5033280;28;20029;-85
2024/01/16 05:45:25;;;;;;;20.85;13.70;;;-1.40;99.90;;;;;;5030992;28;20068;-86
2024/01/16 05:47:51;;;;;;;22.38;11.23;;;-1.40;99.90;;;;;;5026110;28;20037;-87
2024/01/16 05:50:18;;;;;;;21.52;14.52;;;-1.40;99.90;;;;;;5006594;28;20060;-88
2024/01/16 05:52:44;;;;;;;22.33;13.40;;;-1.50;99.90;;;;;;5024222;28;20018;-86
2024/01/16 05:55:10;;;;;;;23.02;14.38;;;-1.50;99.90;;;;;;5023009;28;20026;-84
2024/01/16 05:57:37;;;;;;;22.67;13.37;;;-1.50;99.90;;;;;;5018482;28;20034;-84
2024/01/16 06:00:05;;;;;;;26.38;15.25;;;-1.50;99.90;;;;;;5019377;28;20017;-84
2024/01/16 06:02:31;;;;;;;25.67;14.63;;;-1.40;99.90;;;;;;5015710;28;20101;-85
2024/01/16 06:04:57;;;;;;;18.95;12.18;;;-1.40;99.90;;;;;;5016730;28;20018;-85
2024/01/16 06:07:23;;;;;;;23.17;12.38;;;-1.40;99.90;;;;;;5016805;28;20121;-87
2024/01/16 06:09:49;;;;;;;25.42;15.77;;;-1.50;99.90;;;;;;5014506;28;20479;-85
2024/01/16 06:12:14;;;;;;;25.50;12.70;;;-1.50;99.90;;;;;;4995912;28;20045;-85
2024/01/16 06:14:40;;;;;;;27.90;14.95;;;-1.50;99.90;;;;;;5024513;28;20002;-86
2024/01/16 06:17:08;;;;;;;26.83;16.20;;;-1.50;99.90;;;;;;5029433;28;20026;-86
2024/01/16 06:19:34;;;;;;;22.15;12.63;;;-1.50;99.90;;;;;;5017343;28;20022;-87
2024/01/16 06:22:00;;;;;;;25.08;14.57;;;-1.50;99.90;;;;;;5022269;28;20026;-85
2024/01/16 06:24:26;;;;;;;25.48;15.38;;;-1.40;99.90;;;;;;5016643;28;20141;-86
2024/01/16 06:26:52;;;;;;;25.00;14.43;;;-1.40;99.90;;;;;;4997836;28;20038;-86
2024/01/16 06:29:22;;;;;;;29.02;16.98;;;-1.40;99.90;;;;;;5016387;28;20018;-87
2024/01/16 06:31:49;;;;;;;24.00;13.68;;;-1.40;99.90;;;;;;5007622;28;20054;-86
2024/01/16 06:34:15;;;;;;;23.85;14.50;;;-1.40;99.90;;;;;;5021998;28;20026;-88
2024/01/16 06:36:41;;;;;;;24.30;13.82;;;-1.40;99.90;;;;;;5013308;28;20041;-88
2024/01/16 06:39:07;;;;;;;19.80;12.95;;;-1.40;99.90;;;;;;5014849;28;20049;-86
2024/01/16 06:41:33;;;;;;;27.95;15.75;;;-1.30;99.90;;;;;;4998866;28;20210;-86
2024/01/16 06:43:58;;;;;;;25.00;14.43;;;-1.40;99.90;;;;;;5015498;28;20034;-88
2024/01/16 06:46:25;;;;;;;31.77;17.45;;;-1.30;99.90;;;;;;5015604;28;20084;-86
2024/01/16 06:48:51;;;;;;;25.00;15.40;;;-1.30;99.90;;;;;;5017582;28;20060;-86
2024/01/16 06:51:17;;;;;;;27.05;15.05;;;-1.30;99.90;;;;;;5033258;28;20029;-88
2024/01/16 06:53:43;;;;;;;25.83;14.98;;;-1.40;99.90;;;;;;5033892;28;20037;-89
2024/01/16 06:56:09;;;;;;;31.13;16.77;;;-1.40;99.90;;;;;;5036460;28;20034;-86
2024/01/16 06:58:35;;;;;;;28.25;14.00;;;-1.40;99.90;;;;;;5035283;28;20067;-88
2024/01/16 07:01:01;;;;;;;21.48;10.20;;;-1.30;99.90;;;;;;5025514;28;20047;-86
2024/01/16 07:03:27;;;;;;;32.58;16.33;;;-1.30;99.90;;;;;;5022092;28;20439;-85
2024/01/16 07:05:53;;;;;;;29.05;15.48;;;-1.40;99.90;;;;;;5007000;28;20066;-86
2024/01/16 07:08:19;;;;;;;30.23;17.98;;;-1.50;99.90;;;;;;5012415;28;20025;-85
2024/01/16 07:10:46;;;;;;;30.05;18.60;;;-1.50;99.90;;;;;;5014859;28;20040;-84
2024/01/16 07:13:12;;;;;;;28.10;16.83;;;-1.40;99.90;;;;;;5015085;28;20029;-86
2024/01/16 07:15:38;;;;;;;29.35;16.08;;;-1.40;99.90;;;;;;5028827;28;20507;-90
2024/01/16 07:18:04;;;;;;;27.05;16.20;;;-1.30;99.90;;;;;;5018764;28;20106;-85
2024/01/16 07:20:29;;;;;;;34.28;18.63;;;-1.40;99.90;;;;;;5015329;28;20065;-86
2024/01/16 07:22:55;;;;;;;22.88;14.43;;;-1.40;99.90;;;;;;5015679;28;20026;-85
2024/01/16 07:25:21;;;;;;;30.70;17.38;;;-1.40;99.90;;;;;;5013757;28;20398;-83
2024/01/16 07:27:49;;;;;;;26.63;14.88;;;-1.40;99.90;;;;;;5013488;28;20043;-81
2024/01/16 07:30:16;;;;;;;26.98;16.13;;;-1.40;99.90;;;;;;5013767;28;20060;-86
2024/01/16 07:32:42;;;;;;;32.67;18.13;;;-1.40;99.90;;;;;;5014125;28;20033;-83
2024/01/16 07:35:08;;;;;;;25.17;17.98;;;-1.40;99.90;;;;;;5013557;28;20106;-83
2024/01/16 07:37:34;;;;;;;28.02;16.85;;;-1.30;99.90;;;;;;5013784;28;20050;-84
2024/01/16 07:39:59;;;;;;;30.45;16.30;;;-1.20;99.90;;;;;;5012846;28;20037;-84
2024/01/16 07:42:26;;;;;;;25.17;15.10;;;-1.20;99.90;;;;;;5015667;28;20041;-80
2024/01/16 07:44:52;;;;;;;24.88;15.13;;;-1.20;99.90;;;;;;5019992;28;20049;-82
2024/01/16 07:47:18;;;;;;;24.88;14.75;;;-1.20;99.90;;;;;;5012934;28;20049;-84
2024/01/16 07:49:44;;;;;;;21.70;15.10;;;-1.20;99.90;;;;;;5016209;28;20096;-81
2024/01/16 07:52:12;;;;;;;25.95;14.30;;;-1.10;99.90;;;;;;5014431;28;20045;-83
2024/01/16 07:54:37;;;;;;;12.30;8.85;;;-1.10;99.90;;;;;;5015852;28;20097;-82
2024/01/16 07:57:03;;;;;;;23.58;15.18;;;-1.20;99.90;;;;;;5015221;28;20037;-82
2024/01/16 07:59:29;;;;;;;26.20;15.75;;;-1.20;99.90;;;;;;5013507;28;20073;-81
2024/01/16 08:01:55;;;;;;;20.02;11.95;;;-1.20;99.90;;;;;;5019035;28;20049;-81
2024/01/16 08:04:21;;;;;;;20.02;11.77;;;-1.20;99.90;;;;;;5018296;28;20096;-81
2024/01/16 08:06:47;;;;;;;21.20;11.68;;;-1.30;99.90;;;;;;5013476;28;20079;-84
2024/01/16 08:09:14;;;;;;;19.80;12.27;;;-1.30;99.90;;;;;;5013874;28;20029;-83
2024/01/16 08:11:39;;;;;;;19.38;14.05;;;-1.30;99.90;;;;;;5013912;28;20060;-84
2024/01/16 08:14:06;;;;;;;23.75;12.77;;;-1.30;99.90;;;;;;5013754;28;20394;-82
2024/01/16 08:16:31;;;;;;;17.65;10.82;;;-1.30;99.90;;;;;;5013014;28;20104;-83
2024/01/16 08:18:58;;;;;;;18.80;13.27;;;-1.20;99.90;;;;;;5011866;28;20104;-83
2024/01/16 08:21:24;;;;;;;17.90;11.88;;;-1.20;99.90;;;;;;5012618;28;20022;-82
2024/01/16 08:23:49;;;;;;;21.38;12.95;;;-1.20;99.90;;;;;;4994575;28;20394;-82
2024/01/16 08:26:15;;;;;;;23.02;13.88;;;-1.20;99.90;;;;;;5012410;28;20041;-81
2024/01/16 08:28:41;;;;;;;24.60;15.20;;;-1.10;99.90;;;;;;5011423;28;20025;-81
2024/01/16 08:31:07;;;;;;;15.45;10.25;;;-1.00;99.90;;;;;;5005745;28;20026;-82
2024/01/16 08:33:33;;;;;;;17.10;9.80;;;-1.00;99.90;;;;;;5006547;28;20064;-82
2024/01/16 08:35:59;;;;;;;24.30;13.43;;;-1.00;99.90;;;;;;5013277;28;20045;-83
2024/01/16 08:38:25;;;;;;;21.17;12.20;;;-1.20;99.90;;;;;;5010879;28;20097;-81
2024/01/16 08:40:51;;;;;;;20.20;13.63;;;-1.20;99.90;;;;;;5013465;28;20758;-81
2024/01/16 08:43:17;;;;;;;20.92;11.45;;;-1.10;99.90;;;;;;5017760;28;20391;-82
2024/01/16 08:45:42;;;;;;;26.60;15.13;;;-1.10;99.90;;;;;;5011133;28;20038;-83
2024/01/16 08:48:09;;;;;;;21.13;14.27;;;-1.00;99.90;;;;;;5011571;28;20037;-82
2024/01/16 08:50:35;;;;;;;22.90;13.00;;;-1.00;99.90;;;;;;5012686;28;20031;-83
2024/01/16 08:53:01;;;;;;;18.48;11.80;;;-1.00;99.90;;;;;;5010150;28;20037;-83
2024/01/16 08:55:26;;;;;;;20.35;10.10;;;-1.00;99.90;;;;;;5012507;28;20172;-81
2024/01/16 08:57:52;;;;;;;25.48;13.95;;;-1.10;99.90;;;;;;4994514;28;20026;-81
2024/01/16 09:00:18;;;;;;;23.95;13.45;;;-1.20;99.90;;;;;;5011063;28;20026;-82
2024/01/16 09:02:44;;;;;;;17.55;11.00;;;-1.10;99.90;;;;;;5012633;28;20026;-81
2024/01/16 09:05:10;;;;;;;19.95;12.75;;;-1.00;99.90;;;;;;5010911;28;20121;-81
2024/01/16 09:07:36;;;;;;;20.15;11.48;;;-1.00;99.90;;;;;;5012059;28;20037;-82
2024/01/16 09:10:02;;;;;;;16.90;10.23;;;-0.90;99.90;;;;;;5011141;28;20104;-83
2024/01/16 09:12:28;;;;;;;14.68;8.93;;;-0.80;99.90;;;;;;4995288;28;20096;-83
2024/01/16 09:14:54;;;;;;;22.02;12.50;;;-0.90;99.90;;;;;;5008876;28;20023;-83
2024/01/16 09:17:20;;;;;;;19.42;12.13;;;-1.00;99.90;;;;;;5012139;28;20040;-83
2024/01/16 09:19:46;;;;;;;19.02;11.93;;;-1.10;99.90;;;;;;5015953;28;20092;-83
2024/01/16 09:22:12;;;;;;;17.58;12.70;;;-1.10;99.90;;;;;;5015630;28;20026;-82
2024/01/16 09:24:38;;;;;;;21.95;12.15;;;-1.00;99.90;;;;;;5019696;28;20060;-82
2024/01/16 09:27:06;;;;;;;16.17;11.43;;;-0.80;99.90;;;;;;5016893;28;20037;-83
2024/01/16 09:29:33;;;;;;;18.05;12.07;;;-0.80;99.90;;;;;;5015631;28;20033;-83
2024/01/16 09:31:59;;;;;;;18.73;11.45;;;-0.80;99.90;;;;;;4996988;28;20025;-82
2024/01/16 09:34:24;;;;;;;21.77;12.63;;;-0.90;99.90;;;;;;5015811;28;20028;-83
2024/01/16 09:36:50;;;;;;;20.15;12.00;;;-1.00;99.90;;;;;;5014131;28;20094;-82
2024/01/16 09:39:16;;;;;;;17.75;11.93;;;-1.00;99.90;;;;;;5009571;28;20472;-83
2024/01/16 09:41:42;;;;;;;20.13;12.15;;;-0.80;99.90;;;;;;5007687;28;20113;-81
2024/01/16 09:44:09;;;;;;;21.95;13.02;;;-0.70;99.90;;;;;;5015171;28;20443;-82
2024/01/16 09:46:40;;;;;;;19.15;11.68;;;-0.70;99.90;;;;;;5014176;28;20056;-83
2024/01/16 09:49:06;;;;;;;21.85;13.00;;;-0.60;99.90;;;;;;5014974;28;20042;-81
2024/01/16 09:51:32;;;;;;;17.05;11.13;;;-0.60;99.90;;;;;;5015295;28;20022;-83
2024/01/16 09:53:58;;;;;;;20.33;11.18;;;-0.60;99.90;;;;;;5013789;28;20157;-83
2024/01/16 09:56:28;;;;;;;20.05;11.27;;;-0.80;99.90;;;;;;5015447;28;20014;-82
2024/01/16 09:59:03;;;;;;;18.77;10.88;;;-0.90;99.90;;;;;;5015197;28;20026;-82
2024/01/16 10:01:30;;;;;;;20.08;12.13;;;-0.90;99.90;;;;;;5013959;28;20076;-82
2024/01/16 10:03:56;;;;;;;19.35;13.68;;;-0.90;99.90;;;;;;5014146;28;20061;-82
2024/01/16 10:06:24;;;;;;;22.20;14.20;;;-0.80;99.90;;;;;;5015278;28;20491;-82
2024/01/16 10:08:50;;;;;;;19.45;11.88;;;-0.70;99.90;;;;;;5015971;28;20053;-82
2024/01/16 10:11:15;;;;;;;17.80;12.07;;;-0.50;99.90;;;;;;5005828;28;20491;-82
2024/01/16 10:13:43;;;;;;;17.63;11.48;;;-0.50;99.90;;;;;;5017321;28;20026;-81
2024/01/16 10:16:09;;;;;;;24.35;14.52;;;-0.50;99.90;;;;;;5020523;28;20033;-82
2024/01/16 10:18:34;;;;;;;17.42;11.52;;;-0.50;99.90;;;;;;5017937;28;20029;-82
2024/01/16 10:21:00;;;;;;;20.90;13.40;;;-0.50;99.90;;;;;;5014213;28;20033;-83
2024/01/16 10:23:28;;;;;;;19.92;9.90;;;-0.50;99.90;;;;;;5014778;28;20030;-83
2024/01/16 10:26:07;;;;;;;19.58;12.40;;;-0.50;99.90;;;;;;5019303;28;20032;-81
2024/01/16 10:28:37;;;;;;;24.27;13.95;;;-0.60;99.90;;;;;;4999253;28;20045;-81
2024/01/16 10:31:08;;;;;;;18.88;12.35;;;-0.60;99.90;;;;;;5015641;28;20099;-81
2024/01/16 10:33:34;;;;;;;20.10;13.63;;;-0.70;99.90;;;;;;5016443;28;20108;-83
2024/01/16 10:36:16;;;;;;;21.40;10.18;;;-0.80;99.90;;;;;;5014293;28;20034;-84
2024/01/16 10:38:43;;;;;;;24.38;11.32;;;-0.80;99.90;;;;;;5013438;28;20037;-84
2024/01/16 10:41:24;;;;;;;;;;;-0.90;99.90;;;;;;5007872;28;20029;-83
2024/01/16 10:44:04;;;;;;;24.05;14.07;;;-0.90;99.90;;;;;;5011449;28;20302;-80
2024/01/16 10:46:29;;;;;;;22.58;13.57;;;-0.80;99.90;;;;;;5014831;28;20075;-82
2024/01/16 10:49:00;;;;;;;22.20;13.25;;;-0.90;99.90;;;;;;5013660;28;20026;-82
2024/01/16 10:51:30;;;;;;;17.10;10.00;;;-1.00;99.90;;;;;;4993924;28;20443;-80
2024/01/16 10:54:11;;;;;;;24.85;12.73;;;-1.00;99.90;;;;;;5012977;28;20025;-82
2024/01/16 10:56:37;;;;;;;18.92;13.25;;;-1.00;99.90;;;;;;5015439;28;20018;-80
2024/01/16 10:59:21;;;;;;;25.63;13.82;;;-1.10;99.90;;;;;;5013708;28;20112;-80
2024/01/16 11:01:54;;;;;;;21.02;12.02;;;-1.10;99.90;;;;;;5014298;28;20064;-80
2024/01/16 11:04:21;;;;;;;16.73;10.88;;;-1.10;99.90;;;;;;5014293;28;20449;-80
2024/01/16 11:06:53;;;;;;;17.70;11.10;;;-1.00;99.90;;;;;;5012626;28;20089;-78
2024/01/16 11:09:20;;;;;;;17.08;10.40;;;-1.10;99.90;;;;;;4994861;28;20603;-79
2024/01/16 11:11:47;;;;;;;18.85;10.45;;;-1.20;99.90;;;;;;5012716;28;20038;-79
2024/01/16 11:14:17;;;;;;;22.35;12.38;;;-1.30;99.90;;;;;;5013920;28;20033;-80
2024/01/16 11:16:46;;;;;;;24.35;15.65;;;-1.40;99.90;;;;;;5012684;28;20030;-81
2024/01/16 11:19:13;;;;;;;17.13;11.45;;;-1.30;99.90;;;;;;5013736;28;20066;-81
2024/01/16 11:21:40;;;;;;;23.30;12.98;;;-1.30;99.90;;;;;;5013878;28;20028;-79
2024/01/16 11:24:06;;;;;;;19.33;12.10;;;-1.40;99.90;;;;;;5015123;28;20545;-79
2024/01/16 11:26:36;;;;;;;18.77;10.55;;;-1.30;99.90;;;;;;4996059;28;20038;-79
2024/01/16 11:29:27;;;;;;;18.10;10.45;;;-1.30;99.90;;;;;;5012187;28;20387;-79
2024/01/16 11:31:56;;;;;;;19.70;13.15;;;-1.30;99.90;;;;;;5013605;28;20022;-79
2024/01/16 11:34:41;;;;;;;21.63;12.68;;;-1.20;99.90;;;;;;5016527;28;20036;-80
2024/01/16 11:37:14;;;;;;;25.02;13.57;;;-1.20;99.90;;;;;;5015283;28;20030;-82
2024/01/16 11:39:41;;;;;;;22.70;12.63;;;-1.20;99.90;;;;;;5012068;28;20025;-82
2024/01/16 11:42:10;;;;;;;23.17;13.38;;;-1.30;99.90;;;;;;5013432;28;20476;-80
2024/01/16 11:44:50;;;;;;;21.55;11.52;;;-1.40;99.90;;;;;;5012519;28;20018;-82
2024/01/16 11:47:23;;;;;;;19.02;10.93;;;-1.40;99.90;;;;;;5012929;28;20120;-83
2024/01/16 11:50:07;;;;;;;18.92;12.90;;;-1.40;99.90;;;;;;5001248;28;20107;-81
2024/01/16 11:52:43;;;;;;;18.50;10.57;;;-1.30;99.90;;;;;;5010559;28;20033;-82
2024/01/16 11:55:32;;;;;;;20.25;12.10;;;-1.40;99.90;;;;;;5000192;28;20014;-82
2024/01/16 11:58:37;;;;;;;18.20;11.15;;;-1.40;99.90;;;;;;5011333;28;20113;-83
2024/01/16 12:01:05;;;;;;;20.42;11.70;;;-1.50;99.90;;;;;;5010077;28;20383;-82
2024/01/16 12:03:32;;;;;;;25.83;13.13;;;-1.50;99.90;;;;;;5013136;28;20079;-84
2024/01/16 12:05:59;;;;;;;20.90;12.80;;;-1.50;99.90;;;;;;5011704;28;20080;-84
2024/01/16 12:08:26;;;;;;;22.58;12.57;;;-1.40;99.90;;;;;;5017899;28;20030;-82
2024/01/16 12:10:52;;;;;;;20.63;12.18;;;-1.40;99.90;;;;;;5015111;28;20022;-81
2024/01/16 12:13:18;;;;;;;21.63;11.55;;;-1.40;99.90;;;;;;5011610;28;20514;-80
2024/01/16 12:15:44;;;;;;;19.83;12.50;;;-1.40;99.90;;;;;;5012250;28;20030;-81
2024/01/16 12:18:10;;;;;;;21.38;14.15;;;-1.40;99.90;;;;;;5012603;28;20026;-80
2024/01/16 12:20:37;;;;;;;21.45;13.32;;;-1.50;99.90;;;;;;5012819;28;20014;-81
2024/01/16 12:23:07;;;;;;;26.03;13.73;;;-1.40;99.90;;;;;;5010917;28;20437;-83
2024/01/16 12:25:35;;;;;;;22.50;13.00;;;-1.50;99.90;;;;;;5011083;28;20022;-81
2024/01/16 12:28:03;;;;;;;15.25;10.15;;;-1.50;99.90;;;;;;5014669;28;20091;-80